createdAt,value
2022-09-28T00:01:25.456Z,97316.13
2022-09-28T00:03:57.519Z,97315.31
2022-09-28T00:06:27.412Z,97305.63
2022-09-28T00:08:54.839Z,97303.75
2022-09-28T00:11:23.493Z,97288.69
2022-09-28T00:13:52.920Z,97302.00
2022-09-28T00:16:24.177Z,97283.03
2022-09-28T00:18:51.588Z,97277.63
2022-09-28T00:21:28.740Z,97264.19
2022-09-28T00:24:14.869Z,97264.56
2022-09-28T00:26:54.830Z,97259.41
2022-09-28T00:29:34.424Z,97251.38
2022-09-28T00:32:09.268Z,97247.13
2022-09-28T00:34:45.678Z,97233.00
2022-09-28T00:37:14.245Z,97225.22
2022-09-28T00:39:41.649Z,97222.88
2022-09-28T00:42:18.967Z,97227.34
2022-09-28T00:44:59.613Z,97223.81
2022-09-28T00:47:56.664Z,97203.47
2022-09-28T00:50:33.094Z,97213.69
2022-09-28T00:53:23.375Z,97200.41
2022-09-28T00:56:07.568Z,97200.50
2022-09-28T00:58:42.069Z,97168.28
2022-09-28T01:01:09.012Z,97191.81
2022-09-28T01:03:37.883Z,97182.38
2022-09-28T01:06:06.719Z,97157.53
2022-09-28T01:08:34.599Z,97155.28
2022-09-28T01:11:02.165Z,97147.66
2022-09-28T01:13:32.706Z,97147.53
2022-09-28T01:16:19.943Z,97131.75
2022-09-28T01:19:34.465Z,97143.03
2022-09-28T01:22:27.479Z,97135.28
2022-09-28T01:25:12.436Z,97112.09
2022-09-28T01:28:04.386Z,97125.63
2022-09-28T01:30:42.480Z,97116.28
2022-09-28T01:33:19.218Z,97112.03
2022-09-28T01:35:56.985Z,97111.25
2022-09-28T01:38:31.980Z,97112.03
2022-09-28T01:41:00.537Z,97095.91
2022-09-28T01:43:29.594Z,97095.00
2022-09-28T01:46:11.491Z,97095.69
2022-09-28T01:48:49.276Z,97080.25
2022-09-28T01:51:46.684Z,97072.81
2022-09-28T01:54:25.866Z,97062.69
2022-09-28T01:56:59.023Z,97059.28
2022-09-28T01:59:29.747Z,97074.19
2022-09-28T02:02:16.578Z,97068.22
2022-09-28T02:04:50.665Z,97058.47
2022-09-28T02:07:27.051Z,97045.75
2022-09-28T02:10:10.835Z,97062.91
2022-09-28T02:12:53.946Z,97040.19
2022-09-28T02:15:28.045Z,97045.81
2022-09-28T02:17:55.063Z,97050.44
2022-09-28T02:20:23.940Z,97030.41
2022-09-28T02:22:56.683Z,97044.28
2022-09-28T02:25:49.743Z,97047.59
2022-09-28T02:28:16.627Z,97035.34
2022-09-28T02:30:44.718Z,97035.34
2022-09-28T02:33:18.797Z,97016.88
2022-09-28T02:35:45.921Z,97033.94
2022-09-28T02:38:14.853Z,97008.00
2022-09-28T02:41:05.337Z,97020.03
2022-09-28T02:44:01.723Z,97015.31
2022-09-28T02:46:45.087Z,97003.66
2022-09-28T02:49:59.057Z,97004.22
2022-09-28T02:53:03.296Z,97002.56
2022-09-28T02:55:59.883Z,96996.72
2022-09-28T02:58:50.836Z,96998.13
2022-09-28T03:01:39.243Z,96992.25
2022-09-28T03:04:32.531Z,96987.41
2022-09-28T03:07:10.129Z,96980.91
2022-09-28T03:10:17.622Z,96982.72
2022-09-28T03:12:47.688Z,96985.78
2022-09-28T03:15:31.481Z,96984.34
2022-09-28T03:17:59.095Z,96972.69
2022-09-28T03:20:27.732Z,96976.00
2022-09-28T03:23:20.147Z,96983.31
2022-09-28T03:25:42.557Z,96967.63
2022-09-28T03:28:09.349Z,96970.56
2022-09-28T03:30:36.179Z,96972.44
2022-09-28T03:33:03.108Z,96978.31
2022-09-28T03:35:29.953Z,96951.41
2022-09-28T03:37:57.399Z,96964.91
2022-09-28T03:40:24.617Z,96970.34
2022-09-28T03:42:51.683Z,96989.81
2022-09-28T03:45:18.655Z,96970.97
2022-09-28T03:47:46.829Z,96964.41
2022-09-28T03:50:15.385Z,96961.53
2022-09-28T03:52:42.811Z,96951.50
2022-09-28T03:55:10.831Z,96966.38
2022-09-28T03:57:38.061Z,96953.84
2022-09-28T04:00:06.348Z,96952.31
2022-09-28T04:02:34.965Z,96960.91
2022-09-28T04:05:02.356Z,96962.81
2022-09-28T04:07:31.205Z,96948.91
2022-09-28T04:09:58.265Z,96937.91
2022-09-28T04:12:26.152Z,96954.09
2022-09-28T04:14:53.159Z,96937.78
2022-09-28T04:17:19.953Z,96946.13
2022-09-28T04:19:47.343Z,96956.56
2022-09-28T04:22:14.198Z,96944.06
2022-09-28T04:24:43.419Z,96944.50
2022-09-28T04:27:28.537Z,96958.16
2022-09-28T04:29:55.347Z,96955.00
2022-09-28T04:32:22.381Z,96961.41
2022-09-28T04:34:49.507Z,96982.09
2022-09-28T04:37:16.284Z,96984.13
2022-09-28T04:39:46.289Z,96992.19
2022-09-28T04:42:15.848Z,96978.59
2022-09-28T04:44:43.076Z,96978.81
2022-09-28T04:47:10.292Z,96983.09
2022-09-28T04:49:38.296Z,96982.28
2022-09-28T04:52:06.310Z,96969.84
2022-09-28T04:54:33.172Z,96981.16
2022-09-28T04:57:00.043Z,96999.06
2022-09-28T04:59:26.944Z,96991.53
2022-09-28T05:01:54.173Z,96989.91
2022-09-28T05:04:25.634Z,96993.69
2022-09-28T05:06:52.892Z,96994.34
2022-09-28T05:09:19.796Z,97007.09
2022-09-28T05:11:46.562Z,97007.44
2022-09-28T05:14:13.494Z,97007.09
2022-09-28T05:16:40.312Z,96975.84
2022-09-28T05:19:07.195Z,96987.69
2022-09-28T05:21:34.160Z,96999.19
2022-09-28T05:24:01.285Z,96997.25
2022-09-28T05:26:28.061Z,96975.84
2022-09-28T05:28:54.881Z,96990.84
2022-09-28T05:31:21.720Z,96999.31
2022-09-28T05:33:49.129Z,96990.34
2022-09-28T05:36:15.993Z,96984.84
2022-09-28T05:38:42.808Z,97005.09
2022-09-28T05:41:09.720Z,97005.34
2022-09-28T05:43:36.835Z,97003.72
2022-09-28T05:46:03.900Z,97008.28
2022-09-28T05:48:31.010Z,96984.56
2022-09-28T05:50:58.775Z,96993.63
2022-09-28T05:53:25.839Z,96996.28
2022-09-28T05:55:52.693Z,97004.06
2022-09-28T05:58:19.642Z,97014.66
2022-09-28T06:00:46.460Z,97006.94
2022-09-28T06:03:14.657Z,97007.75
2022-09-28T06:05:41.743Z,97026.94
2022-09-28T06:08:13.055Z,97025.28
2022-09-28T06:10:40.346Z,97027.50
2022-09-28T06:13:07.937Z,97022.00
2022-09-28T06:15:36.737Z,97028.34
2022-09-28T06:18:15.935Z,97035.97
2022-09-28T06:20:43.575Z,97031.41
2022-09-28T06:23:12.069Z,97029.00
2022-09-28T06:25:39.665Z,97035.97
2022-09-28T06:28:11.091Z,97039.50
2022-09-28T06:30:39.127Z,97032.22
2022-09-28T06:33:08.283Z,97040.06
2022-09-28T06:35:35.725Z,97039.38
2022-09-28T06:38:02.929Z,97032.16
2022-09-28T06:40:29.809Z,97022.78
2022-09-28T06:43:02.525Z,97038.69
2022-09-28T06:45:30.516Z,97048.81
2022-09-28T06:48:00.396Z,97047.84
2022-09-28T06:50:37.412Z,97060.09
2022-09-28T06:53:06.961Z,97066.31
2022-09-28T06:55:33.825Z,97068.56
2022-09-28T06:58:07.463Z,97074.47
2022-09-28T07:00:37.291Z,97069.41
2022-09-28T07:03:13.900Z,97076.09
2022-09-28T07:05:46.840Z,97069.53
2022-09-28T07:08:14.811Z,97077.28
2022-09-28T07:10:47.802Z,97075.75
2022-09-28T07:13:41.688Z,97096.59
2022-09-28T07:16:03.828Z,97098.00
2022-09-28T07:18:30.735Z,97108.16
2022-09-28T07:20:58.006Z,97112.97
2022-09-28T07:23:29.534Z,97113.09
2022-09-28T07:25:58.099Z,97124.75
2022-09-28T07:28:25.368Z,97116.88
2022-09-28T07:30:52.411Z,97126.88
2022-09-28T07:33:19.339Z,97121.56
2022-09-28T07:35:55.162Z,97134.00
2022-09-28T07:38:22.358Z,97141.91
2022-09-28T07:41:08.130Z,97140.16
2022-09-28T07:43:35.319Z,97133.25
2022-09-28T07:46:02.306Z,97147.47
2022-09-28T07:48:37.709Z,97145.47
2022-09-28T07:51:04.983Z,97134.66
2022-09-28T07:53:31.834Z,97139.72
2022-09-28T07:56:08.979Z,97152.63
2022-09-28T07:58:38.350Z,97159.34
2022-09-28T08:01:11.790Z,97152.25
2022-09-28T08:03:39.330Z,97160.50
2022-09-28T08:06:09.786Z,97165.91
2022-09-28T08:08:37.033Z,97152.00
2022-09-28T08:11:06.997Z,97153.31
2022-09-28T08:13:33.880Z,97151.31
2022-09-28T08:16:02.100Z,97153.63
2022-09-28T08:18:29.282Z,97147.84
2022-09-28T08:21:14.998Z,97147.72
2022-09-28T08:23:41.927Z,97161.97
2022-09-28T08:26:13.301Z,97170.53
2022-09-28T08:28:43.484Z,97179.13
2022-09-28T08:31:10.494Z,97182.47
2022-09-28T08:33:37.451Z,97184.81
2022-09-28T08:36:05.169Z,97173.66
2022-09-28T08:38:32.749Z,97152.13
2022-09-28T08:41:41.861Z,97164.34
2022-09-28T08:44:24.922Z,97167.38
2022-09-28T08:47:06.701Z,97179.16
2022-09-28T08:49:45.098Z,97190.00
2022-09-28T08:52:24.794Z,97181.28
2022-09-28T08:55:10.018Z,97173.03
2022-09-28T08:58:04.313Z,97202.53
2022-09-28T09:00:45.584Z,97207.47
2022-09-28T09:03:17.031Z,97207.25
2022-09-28T09:06:18.823Z,97206.66
2022-09-28T09:08:58.772Z,97212.50
2022-09-28T09:12:14.204Z,97207.78
2022-09-28T09:15:14.774Z,97225.91
2022-09-28T09:18:11.312Z,97232.81
2022-09-28T09:20:56.433Z,97225.53
2022-09-28T09:23:46.489Z,97232.00
2022-09-28T09:26:23.006Z,97234.19
2022-09-28T09:29:32.453Z,97232.81
2022-09-28T09:32:20.843Z,97237.50
2022-09-28T09:35:31.593Z,97216.06
2022-09-28T09:38:41.742Z,97235.16
2022-09-28T09:44:19.873Z,97242.47
2022-09-28T09:46:52.749Z,97251.00
2022-09-28T09:49:30.907Z,97236.56
2022-09-28T09:52:27.766Z,97255.03
2022-09-28T09:55:04.179Z,97264.84
2022-09-28T09:57:39.598Z,97262.94
2022-09-28T10:00:14.591Z,97269.06
2022-09-28T10:02:43.806Z,97257.56
2022-09-28T10:05:13.610Z,97266.47
2022-09-28T10:07:50.671Z,97265.28
2022-09-28T10:10:33.448Z,97259.34
2022-09-28T10:13:00.286Z,97255.75
2022-09-28T10:15:30.431Z,97241.22
2022-09-28T10:18:13.454Z,97242.13
2022-09-28T10:20:43.439Z,97243.47
2022-09-28T10:23:25.689Z,97243.91
2022-09-28T10:25:59.275Z,97247.44
2022-09-28T10:28:39.291Z,97222.72
2022-09-28T10:31:50.584Z,97238.22
2022-09-28T10:34:25.453Z,97258.50
2022-09-28T10:37:03.332Z,97249.72
2022-09-28T10:39:50.553Z,97251.16
2022-09-28T10:42:26.473Z,97243.25
2022-09-28T10:45:22.192Z,97263.81
2022-09-28T10:47:50.267Z,97245.75
2022-09-28T10:50:24.337Z,97250.69
2022-09-28T10:52:51.114Z,97246.06
2022-09-28T10:55:21.020Z,97252.69
2022-09-28T10:57:48.387Z,97253.38
2022-09-28T11:00:41.455Z,97249.41
2022-09-28T11:03:21.422Z,97257.38
2022-09-28T11:06:01.428Z,97229.44
2022-09-28T11:08:50.111Z,97246.16
2022-09-28T11:11:19.991Z,97249.78
2022-09-28T11:13:57.145Z,97242.63
2022-09-28T11:16:32.452Z,97237.56
2022-09-28T11:19:05.498Z,97233.88
2022-09-28T11:21:42.627Z,97249.78
2022-09-28T11:24:18.904Z,97244.84
2022-09-28T11:26:50.425Z,97235.25
2022-09-28T11:29:34.843Z,97243.78
2022-09-28T11:32:05.328Z,97226.56
2022-09-28T11:34:58.743Z,97231.22
2022-09-28T11:38:16.473Z,97239.84
2022-09-28T11:41:18.646Z,97240.53
2022-09-28T11:44:09.334Z,97225.16
2022-09-28T11:46:48.044Z,97242.41
2022-09-28T11:49:29.114Z,97241.03
2022-09-28T11:52:01.128Z,97242.31
2022-09-28T11:54:40.831Z,97238.44
2022-09-28T11:57:16.753Z,97236.69
2022-09-28T12:00:00.660Z,97219.81
2022-09-28T12:02:46.151Z,97227.69
2022-09-28T12:05:30.744Z,97218.09
2022-09-28T12:08:15.953Z,97196.31
2022-09-28T12:11:07.001Z,97211.53
2022-09-28T12:13:40.231Z,97232.09
2022-09-28T12:19:25.145Z,97237.28
2022-09-28T12:22:02.424Z,97221.63
2022-09-28T12:24:38.591Z,97226.06
2022-09-28T12:27:29.473Z,97228.78
2022-09-28T12:29:58.167Z,97231.53
2022-09-28T12:32:51.720Z,97227.44
2022-09-28T12:36:13.710Z,97221.97
2022-09-28T12:39:57.584Z,97212.34
2022-09-28T12:42:33.293Z,97226.88
2022-09-28T12:46:09.927Z,97221.53
2022-09-28T12:48:40.902Z,97209.38
2022-09-28T12:51:35.656Z,97214.59
2022-09-28T12:54:44.670Z,97214.44
2022-09-28T12:57:49.901Z,97218.66
2022-09-28T13:00:22.815Z,97209.34
2022-09-28T13:02:55.480Z,97221.44
2022-09-28T13:05:36.219Z,97217.88
2022-09-28T13:08:33.924Z,97224.59
2022-09-28T13:11:21.958Z,97225.56
2022-09-28T13:14:16.386Z,97224.31
2022-09-28T13:17:14.663Z,97207.59
2022-09-28T13:20:01.823Z,97220.47
2022-09-28T13:22:46.542Z,97189.91
2022-09-28T13:25:20.899Z,97221.59
2022-09-28T13:28:00.822Z,97212.41
2022-09-28T13:30:27.731Z,97211.03
2022-09-28T13:32:57.621Z,97206.78
2022-09-28T13:35:25.077Z,97211.59
2022-09-28T13:38:17.408Z,97216.25
2022-09-28T13:41:09.243Z,97211.59
2022-09-28T13:43:49.826Z,97216.50
2022-09-28T13:47:02.520Z,97222.56
2022-09-28T13:49:44.562Z,97208.72
2022-09-28T13:52:56.906Z,97213.78
2022-09-28T13:55:40.405Z,97214.06
2022-09-28T13:58:25.368Z,97220.66
2022-09-28T14:01:19.573Z,97214.31
2022-09-28T14:04:19.982Z,97229.16
2022-09-28T14:07:10.510Z,97238.31
2022-09-28T14:09:45.881Z,97235.56
2022-09-28T14:12:34.447Z,97240.22
2022-09-28T14:15:05.138Z,97236.63
2022-09-28T14:17:54.217Z,97242.84
2022-09-28T14:20:24.965Z,97217.34
2022-09-28T14:23:15.626Z,97247.25
2022-09-28T14:26:03.967Z,97244.50
2022-09-28T14:29:15.901Z,97214.59
2022-09-28T14:31:43.759Z,97227.34
2022-09-28T14:34:27.185Z,97249.97
2022-09-28T14:37:12.474Z,97244.84
2022-09-28T14:40:04.009Z,97248.06
2022-09-28T14:42:31.182Z,97247.94
2022-09-28T14:45:06.605Z,97253.81
2022-09-28T14:47:42.740Z,97260.47
2022-09-28T14:50:24.561Z,97252.13
2022-09-28T14:52:55.536Z,97254.19
2022-09-28T14:55:38.203Z,97263.91
2022-09-28T14:58:07.698Z,97254.59
2022-09-28T15:00:35.365Z,97247.03
2022-09-28T15:03:08.935Z,97251.16
2022-09-28T15:05:49.350Z,97246.25
2022-09-28T15:08:20.931Z,97237.56
2022-09-28T15:10:50.146Z,97234.28
2022-09-28T15:13:27.631Z,97232.50
2022-09-28T15:16:16.263Z,97272.66
2022-09-28T15:19:15.586Z,97260.19
2022-09-28T15:21:43.684Z,97252.66
2022-09-28T15:24:32.753Z,97255.13
2022-09-28T15:27:14.596Z,97250.47
2022-09-28T15:29:41.389Z,97255.41
2022-09-28T15:32:24.914Z,97262.09
2022-09-28T15:34:51.790Z,97232.38
2022-09-28T15:37:39.646Z,97261.41
2022-09-28T15:40:16.685Z,97257.16
2022-09-28T15:42:45.228Z,97257.31
2022-09-28T15:45:31.970Z,97258.38
2022-09-28T15:48:26.905Z,97269.38
2022-09-28T15:51:11.661Z,97267.72
2022-09-28T15:53:49.722Z,97277.44
2022-09-28T15:56:16.563Z,97271.25
2022-09-28T15:58:43.523Z,97257.78
2022-09-28T16:01:36.521Z,97277.28
2022-09-28T16:04:39.149Z,97275.63
2022-09-28T16:07:29.073Z,97277.50
2022-09-28T16:10:25.621Z,97278.06
2022-09-28T16:13:06.580Z,97262.88
2022-09-28T16:15:36.023Z,97281.34
2022-09-28T16:18:25.651Z,97274.78
2022-09-28T16:20:54.783Z,97285.59
2022-09-28T16:23:27.414Z,97270.66
2022-09-28T16:26:06.735Z,97277.94
2022-09-28T16:28:34.602Z,97281.91
2022-09-28T16:31:12.349Z,97287.91
2022-09-28T16:33:58.825Z,97268.72
2022-09-28T16:36:29.815Z,97284.34
2022-09-28T16:38:57.035Z,97278.56
2022-09-28T16:41:28.819Z,97284.59
2022-09-28T16:44:00.957Z,97285.56
2022-09-28T16:46:37.219Z,97289.66
2022-09-28T16:49:06.088Z,97288.53
2022-09-28T16:51:33.555Z,97288.72
2022-09-28T16:54:34.436Z,97286.41
2022-09-28T16:57:02.482Z,97296.38
2022-09-28T16:59:29.678Z,97281.81
2022-09-28T17:01:56.954Z,97295.34
2022-09-28T17:04:25.346Z,97293.72
2022-09-28T17:06:54.319Z,97305.13
2022-09-28T17:09:22.274Z,97296.31
2022-09-28T17:11:56.055Z,97301.88
2022-09-28T17:14:23.939Z,97307.66
2022-09-28T17:17:12.684Z,97309.09
2022-09-28T17:19:41.093Z,97309.38
2022-09-28T17:22:09.328Z,97271.97
2022-09-28T17:24:36.815Z,97292.78
2022-09-28T17:27:04.164Z,97301.41
2022-09-28T17:29:32.594Z,97303.38
2022-09-28T17:31:59.401Z,97305.72
2022-09-28T17:34:26.317Z,97289.72
2022-09-28T17:36:53.146Z,97327.25
2022-09-28T17:39:21.417Z,97309.06
2022-09-28T17:41:48.377Z,97318.41
2022-09-28T17:44:16.220Z,97328.81
2022-09-28T17:46:49.624Z,97336.28
2022-09-28T17:49:17.137Z,97338.63
2022-09-28T17:51:44.176Z,97336.97
2022-09-28T17:54:13.048Z,97326.66
2022-09-28T17:56:40.021Z,97337.25
2022-09-28T17:59:17.670Z,97329.72
2022-09-28T18:01:44.934Z,97336.81
2022-09-28T18:04:33.250Z,97320.97
2022-09-28T18:07:00.420Z,97361.13
2022-09-28T18:09:27.545Z,97354.75
2022-09-28T18:12:04.063Z,97344.19
2022-09-28T18:14:30.925Z,97364.94
2022-09-28T18:16:57.726Z,97362.56
2022-09-28T18:19:27.521Z,97354.69
2022-09-28T18:21:58.510Z,97359.28
2022-09-28T18:24:25.402Z,97360.09
2022-09-28T18:26:52.185Z,97374.09
2022-09-28T18:29:18.971Z,97381.16
2022-09-28T18:31:45.781Z,97386.16
2022-09-28T18:34:13.547Z,97386.59
2022-09-28T18:36:40.515Z,97386.41
2022-09-28T18:39:07.347Z,97398.19
2022-09-28T18:41:34.171Z,97399.38
2022-09-28T18:44:01.200Z,97388.31
2022-09-28T18:46:29.912Z,97411.88
2022-09-28T18:48:56.940Z,97418.09
2022-09-28T18:51:24.333Z,97393.13
2022-09-28T18:53:51.241Z,97401.72
2022-09-28T18:56:19.675Z,97427.66
2022-09-28T18:58:48.364Z,97403.63
2022-09-28T19:01:33.855Z,97422.97
2022-09-28T19:04:07.842Z,97428.59
2022-09-28T19:06:37.780Z,97427.16
2022-09-28T19:09:04.843Z,97432.34
2022-09-28T19:11:32.417Z,97438.38
2022-09-28T19:13:59.617Z,97434.16
2022-09-28T19:16:29.339Z,97434.94
2022-09-28T19:18:58.220Z,97431.66
2022-09-28T19:21:26.713Z,97398.88
2022-09-28T19:23:55.315Z,97424.81
2022-09-28T19:26:26.885Z,97437.31
2022-09-28T19:28:56.001Z,97433.88
2022-09-28T19:31:23.873Z,97438.81
2022-09-28T19:33:50.790Z,97409.09
2022-09-28T19:36:23.480Z,97443.88
2022-09-28T19:38:52.806Z,97439.06
2022-09-28T19:41:43.481Z,97449.44
2022-09-28T19:44:27.354Z,97447.56
2022-09-28T19:46:57.293Z,97451.94
2022-09-28T19:49:26.842Z,97465.00
2022-09-28T19:52:14.304Z,97455.78
2022-09-28T19:54:54.435Z,97463.09
2022-09-28T19:57:21.538Z,97449.78
2022-09-28T19:59:52.370Z,97469.22
2022-09-28T20:02:20.194Z,97470.84
2022-09-28T20:04:47.354Z,97451.44
2022-09-28T20:07:15.045Z,97473.19
2022-09-28T20:09:42.216Z,97432.28
2022-09-28T20:12:09.561Z,97460.56
2022-09-28T20:14:39.476Z,97464.97
2022-09-28T20:17:07.395Z,97486.56
2022-09-28T20:19:34.963Z,97483.50
2022-09-28T20:22:03.128Z,97474.38
2022-09-28T20:24:31.358Z,97489.63
2022-09-28T20:26:58.688Z,97467.50
2022-09-28T20:29:25.566Z,97480.25
2022-09-28T20:31:52.629Z,97472.38
2022-09-28T20:34:19.486Z,97487.91
2022-09-28T20:36:46.289Z,97473.03
2022-09-28T20:39:13.498Z,97491.03
2022-09-28T20:41:41.060Z,97491.16
2022-09-28T20:44:07.920Z,97485.75
2022-09-28T20:46:36.369Z,97486.84
2022-09-28T20:49:05.109Z,97497.41
2022-09-28T20:51:32.192Z,97499.66
2022-09-28T20:53:59.551Z,97498.94
2022-09-28T20:56:30.683Z,97477.84
2022-09-28T20:58:57.737Z,97494.38
2022-09-28T21:01:28.518Z,97492.50
2022-09-28T21:04:04.188Z,97502.44
2022-09-28T21:06:34.681Z,97500.28
2022-09-28T21:09:02.136Z,97492.75
2022-09-28T21:11:29.867Z,97496.97
2022-09-28T21:14:00.016Z,97499.28
2022-09-28T21:16:29.862Z,97494.31
2022-09-28T21:18:56.665Z,97491.97
2022-09-28T21:21:24.450Z,97489.16
2022-09-28T21:23:58.661Z,97470.53
2022-09-28T21:26:28.228Z,97487.78
2022-09-28T21:29:03.141Z,97500.50
2022-09-28T21:31:42.155Z,97483.75
2022-09-28T21:34:20.853Z,97485.63
2022-09-28T21:36:54.686Z,97493.81
2022-09-28T21:39:21.668Z,97489.56
2022-09-28T21:41:48.675Z,97478.09
2022-09-28T21:44:15.699Z,97486.19
2022-09-28T21:46:42.850Z,97492.59
2022-09-28T21:49:10.749Z,97493.84
2022-09-28T21:51:38.021Z,97458.69
2022-09-28T21:54:05.143Z,97494.34
2022-09-28T21:56:32.046Z,97495.28
2022-09-28T21:58:58.948Z,97484.75
2022-09-28T22:01:26.136Z,97492.09
2022-09-28T22:03:55.669Z,97489.72
2022-09-28T22:06:26.624Z,97494.47
2022-09-28T22:08:53.568Z,97494.69
2022-09-28T22:11:23.970Z,97493.22
2022-09-28T22:13:57.864Z,97482.06
2022-09-28T22:16:28.262Z,97486.81
2022-09-28T22:18:55.397Z,97484.84
2022-09-28T22:21:26.214Z,97462.53
2022-09-28T22:23:53.473Z,97471.91
2022-09-28T22:26:23.788Z,97464.91
2022-09-28T22:28:56.491Z,97478.38
2022-09-28T22:31:30.801Z,97459.72
2022-09-28T22:33:58.066Z,97474.06
2022-09-28T22:36:25.842Z,97469.78
2022-09-28T22:38:54.505Z,97492.22
2022-09-28T22:41:22.066Z,97474.22
2022-09-28T22:43:50.982Z,97484.56
2022-09-28T22:46:22.292Z,97488.44
2022-09-28T22:48:52.714Z,97484.50
2022-09-28T22:51:21.040Z,97487.81
2022-09-28T22:53:48.256Z,97482.84
2022-09-28T22:56:18.643Z,97458.44
2022-09-28T22:58:46.449Z,97478.00
2022-09-28T23:01:21.013Z,97484.63
2022-09-28T23:03:49.376Z,97483.88
2022-09-28T23:06:20.934Z,97486.25
2022-09-28T23:08:49.235Z,97489.47
2022-09-28T23:11:16.169Z,97492.03
2022-09-28T23:13:47.906Z,97488.13
2022-09-28T23:16:15.002Z,97487.19
2022-09-28T23:18:42.178Z,97474.06
2022-09-28T23:21:17.614Z,97495.25
2022-09-28T23:23:46.005Z,97498.06
2022-09-28T23:26:19.954Z,97490.59
2022-09-28T23:28:46.915Z,97485.31
2022-09-28T23:31:23.902Z,97491.81
2022-09-28T23:33:51.437Z,97482.22
2022-09-28T23:36:18.312Z,97493.47
2022-09-28T23:38:45.326Z,97475.88
2022-09-28T23:41:12.109Z,97493.25
2022-09-28T23:43:38.960Z,97487.25
2022-09-28T23:46:06.485Z,97489.03
2022-09-28T23:48:33.911Z,97487.25
2022-09-28T23:51:01.052Z,97485.19
2022-09-28T23:53:28.597Z,97477.75
2022-09-28T23:55:55.631Z,97483.75
2022-09-28T23:58:22.751Z,97477.16
